sensor_id;sensor_type;location;lat;lon;timestamp;P1;durP1;ratioP1;P2;durP2;ratioP2
6517;SDS011;3292;48.944;9.240;2023-06-14T00:00:14;5.80;;;4.17;;
6517;SDS011;3292;48.944;9.240;2023-06-14T00:02:41;4.63;;;3.80;;
6517;SDS011;3292;48.944;9.240;2023-06-14T00:05:08;4.63;;;4.20;;
6517;SDS011;3292;48.944;9.240;2023-06-14T00:07:37;4.63;;;4.13;;
6517;SDS011;3292;48.944;9.240;2023-06-14T00:10:07;5.50;;;3.90;;
6517;SDS011;3292;48.944;9.240;2023-06-14T00:12:37;5.63;;;4.00;;
6517;SDS011;3292;48.944;9.240;2023-06-14T00:15:05;5.37;;;3.70;;
6517;SDS011;3292;48.944;9.240;2023-06-14T00:17:34;5.13;;;4.27;;
6517;SDS011;3292;48.944;9.240;2023-06-14T00:20:02;4.30;;;3.90;;
6517;SDS011;3292;48.944;9.240;2023-06-14T00:22:33;5.10;;;3.90;;
6517;SDS011;3292;48.944;9.240;2023-06-14T00:25:01;4.60;;;4.07;;
6517;SDS011;3292;48.944;9.240;2023-06-14T00:27:28;4.60;;;3.83;;
6517;SDS011;3292;48.944;9.240;2023-06-14T00:29:57;4.53;;;4.03;;
6517;SDS011;3292;48.944;9.240;2023-06-14T00:32:24;5.20;;;4.33;;
6517;SDS011;3292;48.944;9.240;2023-06-14T00:34:52;4.03;;;3.73;;
6517;SDS011;3292;48.944;9.240;2023-06-14T00:37:19;6.97;;;4.40;;
6517;SDS011;3292;48.944;9.240;2023-06-14T00:39:46;5.50;;;4.00;;
6517;SDS011;3292;48.944;9.240;2023-06-14T00:42:22;5.57;;;4.07;;
6517;SDS011;3292;48.944;9.240;2023-06-14T00:44:50;4.67;;;4.27;;
6517;SDS011;3292;48.944;9.240;2023-06-14T00:47:18;4.43;;;4.03;;
6517;SDS011;3292;48.944;9.240;2023-06-14T00:49:45;6.13;;;4.20;;
6517;SDS011;3292;48.944;9.240;2023-06-14T00:52:13;4.57;;;4.17;;
6517;SDS011;3292;48.944;9.240;2023-06-14T00:54:41;4.97;;;4.40;;
6517;SDS011;3292;48.944;9.240;2023-06-14T00:57:08;5.50;;;4.60;;
6517;SDS011;3292;48.944;9.240;2023-06-14T01:02:08;5.73;;;3.83;;
6517;SDS011;3292;48.944;9.240;2023-06-14T01:04:36;5.77;;;4.30;;
6517;SDS011;3292;48.944;9.240;2023-06-14T01:07:06;4.60;;;3.83;;
6517;SDS011;3292;48.944;9.240;2023-06-14T01:09:41;5.27;;;4.30;;
6517;SDS011;3292;48.944;9.240;2023-06-14T01:12:15;4.90;;;4.00;;
6517;SDS011;3292;48.944;9.240;2023-06-14T01:14:47;5.63;;;4.03;;
6517;SDS011;3292;48.944;9.240;2023-06-14T01:17:14;5.83;;;4.20;;
6517;SDS011;3292;48.944;9.240;2023-06-14T01:19:43;4.70;;;4.30;;
6517;SDS011;3292;48.944;9.240;2023-06-14T01:22:10;6.67;;;4.00;;
6517;SDS011;3292;48.944;9.240;2023-06-14T01:24:39;5.10;;;4.00;;
6517;SDS011;3292;48.944;9.240;2023-06-14T01:27:10;4.33;;;3.93;;
6517;SDS011;3292;48.944;9.240;2023-06-14T01:29:37;5.17;;;4.10;;
6517;SDS011;3292;48.944;9.240;2023-06-14T01:32:10;4.23;;;3.83;;
6517;SDS011;3292;48.944;9.240;2023-06-14T01:34:38;5.50;;;4.07;;
6517;SDS011;3292;48.944;9.240;2023-06-14T01:37:05;6.10;;;4.10;;
6517;SDS011;3292;48.944;9.240;2023-06-14T01:39:32;6.23;;;4.30;;
6517;SDS011;3292;48.944;9.240;2023-06-14T01:42:02;4.53;;;3.70;;
6517;SDS011;3292;48.944;9.240;2023-06-14T01:44:29;5.80;;;4.00;;
6517;SDS011;3292;48.944;9.240;2023-06-14T01:46:57;6.83;;;4.87;;
6517;SDS011;3292;48.944;9.240;2023-06-14T01:49:25;5.43;;;4.77;;
6517;SDS011;3292;48.944;9.240;2023-06-14T01:51:53;7.20;;;4.80;;
6517;SDS011;3292;48.944;9.240;2023-06-14T01:54:20;6.43;;;4.80;;
6517;SDS011;3292;48.944;9.240;2023-06-14T01:56:47;7.47;;;4.70;;
6517;SDS011;3292;48.944;9.240;2023-06-14T01:59:16;5.17;;;4.30;;
6517;SDS011;3292;48.944;9.240;2023-06-14T02:01:44;6.23;;;4.10;;
6517;SDS011;3292;48.944;9.240;2023-06-14T02:04:11;5.40;;;4.50;;
6517;SDS011;3292;48.944;9.240;2023-06-14T02:06:38;4.73;;;4.30;;
6517;SDS011;3292;48.944;9.240;2023-06-14T02:09:05;4.90;;;4.40;;
6517;SDS011;3292;48.944;9.240;2023-06-14T02:11:32;7.37;;;4.87;;
6517;SDS011;3292;48.944;9.240;2023-06-14T02:13:58;5.83;;;4.93;;
6517;SDS011;3292;48.944;9.240;2023-06-14T02:16:28;5.63;;;4.80;;
6517;SDS011;3292;48.944;9.240;2023-06-14T02:18:55;7.17;;;4.93;;
6517;SDS011;3292;48.944;9.240;2023-06-14T02:21:22;5.10;;;4.60;;
6517;SDS011;3292;48.944;9.240;2023-06-14T02:23:49;8.20;;;5.00;;
6517;SDS011;3292;48.944;9.240;2023-06-14T02:26:15;5.33;;;4.63;;
6517;SDS011;3292;48.944;9.240;2023-06-14T02:28:42;6.47;;;4.67;;
6517;SDS011;3292;48.944;9.240;2023-06-14T02:31:09;5.93;;;5.10;;
6517;SDS011;3292;48.944;9.240;2023-06-14T02:33:37;6.57;;;4.87;;
6517;SDS011;3292;48.944;9.240;2023-06-14T02:36:04;7.10;;;5.13;;
6517;SDS011;3292;48.944;9.240;2023-06-14T02:38:32;6.33;;;4.67;;
6517;SDS011;3292;48.944;9.240;2023-06-14T02:40:58;6.73;;;4.87;;
6517;SDS011;3292;48.944;9.240;2023-06-14T02:43:26;7.60;;;4.77;;
6517;SDS011;3292;48.944;9.240;2023-06-14T02:45:55;5.40;;;4.87;;
6517;SDS011;3292;48.944;9.240;2023-06-14T02:48:21;6.00;;;4.83;;
6517;SDS011;3292;48.944;9.240;2023-06-14T02:50:49;8.17;;;5.43;;
6517;SDS011;3292;48.944;9.240;2023-06-14T02:53:16;8.87;;;5.00;;
6517;SDS011;3292;48.944;9.240;2023-06-14T02:55:43;5.50;;;4.40;;
6517;SDS011;3292;48.944;9.240;2023-06-14T02:58:11;5.90;;;4.97;;
6517;SDS011;3292;48.944;9.240;2023-06-14T03:00:38;5.60;;;5.10;;
6517;SDS011;3292;48.944;9.240;2023-06-14T03:03:05;6.20;;;4.80;;
6517;SDS011;3292;48.944;9.240;2023-06-14T03:05:38;6.83;;;5.07;;
6517;SDS011;3292;48.944;9.240;2023-06-14T03:08:08;7.20;;;4.80;;
6517;SDS011;3292;48.944;9.240;2023-06-14T03:10:35;8.50;;;5.47;;
6517;SDS011;3292;48.944;9.240;2023-06-14T03:13:04;6.93;;;5.37;;
6517;SDS011;3292;48.944;9.240;2023-06-14T03:15:32;7.03;;;5.00;;
6517;SDS011;3292;48.944;9.240;2023-06-14T03:17:58;5.63;;;4.80;;
6517;SDS011;3292;48.944;9.240;2023-06-14T03:20:25;7.23;;;5.07;;
6517;SDS011;3292;48.944;9.240;2023-06-14T03:22:58;8.43;;;5.17;;
6517;SDS011;3292;48.944;9.240;2023-06-14T03:25:26;6.67;;;5.10;;
6517;SDS011;3292;48.944;9.240;2023-06-14T03:27:54;8.53;;;5.57;;
6517;SDS011;3292;48.944;9.240;2023-06-14T03:30:21;6.00;;;4.63;;
6517;SDS011;3292;48.944;9.240;2023-06-14T03:32:48;7.80;;;5.30;;
6517;SDS011;3292;48.944;9.240;2023-06-14T03:35:15;6.10;;;5.13;;
6517;SDS011;3292;48.944;9.240;2023-06-14T03:37:42;8.20;;;5.40;;
6517;SDS011;3292;48.944;9.240;2023-06-14T03:40:10;5.90;;;5.07;;
6517;SDS011;3292;48.944;9.240;2023-06-14T03:42:39;6.33;;;5.70;;
6517;SDS011;3292;48.944;9.240;2023-06-14T03:45:06;5.93;;;5.30;;
6517;SDS011;3292;48.944;9.240;2023-06-14T03:47:34;6.17;;;5.00;;
6517;SDS011;3292;48.944;9.240;2023-06-14T03:50:01;8.30;;;5.13;;
6517;SDS011;3292;48.944;9.240;2023-06-14T03:52:28;6.80;;;5.10;;
6517;SDS011;3292;48.944;9.240;2023-06-14T03:54:56;8.07;;;4.87;;
6517;SDS011;3292;48.944;9.240;2023-06-14T03:57:25;5.50;;;5.00;;
6517;SDS011;3292;48.944;9.240;2023-06-14T03:59:53;5.60;;;4.77;;
6517;SDS011;3292;48.944;9.240;2023-06-14T04:02:20;5.63;;;5.03;;
6517;SDS011;3292;48.944;9.240;2023-06-14T04:04:47;6.90;;;5.27;;
6517;SDS011;3292;48.944;9.240;2023-06-14T04:07:14;8.30;;;5.90;;
6517;SDS011;3292;48.944;9.240;2023-06-14T04:09:44;5.30;;;4.80;;
6517;SDS011;3292;48.944;9.240;2023-06-14T04:12:11;7.77;;;5.87;;
6517;SDS011;3292;48.944;9.240;2023-06-14T04:14:38;6.30;;;5.70;;
6517;SDS011;3292;48.944;9.240;2023-06-14T04:17:07;6.53;;;5.20;;
6517;SDS011;3292;48.944;9.240;2023-06-14T04:19:34;7.33;;;5.73;;
6517;SDS011;3292;48.944;9.240;2023-06-14T04:22:01;6.00;;;5.40;;
6517;SDS011;3292;48.944;9.240;2023-06-14T04:24:28;13.30;;;5.80;;
6517;SDS011;3292;48.944;9.240;2023-06-14T04:26:57;15.07;;;6.50;;
6517;SDS011;3292;48.944;9.240;2023-06-14T04:29:26;13.50;;;6.37;;
6517;SDS011;3292;48.944;9.240;2023-06-14T04:31:56;13.07;;;6.20;;
6517;SDS011;3292;48.944;9.240;2023-06-14T04:34:26;9.80;;;5.60;;
6517;SDS011;3292;48.944;9.240;2023-06-14T04:36:54;6.77;;;6.00;;
6517;SDS011;3292;48.944;9.240;2023-06-14T04:39:23;11.30;;;6.17;;
6517;SDS011;3292;48.944;9.240;2023-06-14T04:41:51;6.80;;;5.50;;
6517;SDS011;3292;48.944;9.240;2023-06-14T04:44:21;6.50;;;5.90;;
6517;SDS011;3292;48.944;9.240;2023-06-14T04:46:56;8.13;;;6.03;;
6517;SDS011;3292;48.944;9.240;2023-06-14T04:49:23;8.20;;;6.37;;
6517;SDS011;3292;48.944;9.240;2023-06-14T04:51:53;9.20;;;5.93;;
6517;SDS011;3292;48.944;9.240;2023-06-14T04:54:24;16.00;;;6.33;;
6517;SDS011;3292;48.944;9.240;2023-06-14T04:56:51;15.30;;;6.13;;
6517;SDS011;3292;48.944;9.240;2023-06-14T04:59:18;10.73;;;5.43;;
6517;SDS011;3292;48.944;9.240;2023-06-14T05:01:45;9.57;;;6.17;;
6517;SDS011;3292;48.944;9.240;2023-06-14T05:04:13;14.87;;;6.93;;
6517;SDS011;3292;48.944;9.240;2023-06-14T05:06:40;12.20;;;5.70;;
6517;SDS011;3292;48.944;9.240;2023-06-14T05:09:08;7.97;;;5.73;;
6517;SDS011;3292;48.944;9.240;2023-06-14T05:11:35;10.50;;;5.60;;
6517;SDS011;3292;48.944;9.240;2023-06-14T05:14:02;6.40;;;5.50;;
6517;SDS011;3292;48.944;9.240;2023-06-14T05:16:32;8.33;;;5.77;;
6517;SDS011;3292;48.944;9.240;2023-06-14T05:18:59;9.03;;;6.20;;
6517;SDS011;3292;48.944;9.240;2023-06-14T05:21:26;10.07;;;5.87;;
6517;SDS011;3292;48.944;9.240;2023-06-14T05:23:53;9.33;;;5.70;;
6517;SDS011;3292;48.944;9.240;2023-06-14T05:26:22;7.77;;;5.30;;
6517;SDS011;3292;48.944;9.240;2023-06-14T05:28:53;7.67;;;5.03;;
6517;SDS011;3292;48.944;9.240;2023-06-14T05:31:21;6.43;;;4.97;;
6517;SDS011;3292;48.944;9.240;2023-06-14T05:33:49;8.37;;;4.97;;
6517;SDS011;3292;48.944;9.240;2023-06-14T05:36:15;8.37;;;5.27;;
6517;SDS011;3292;48.944;9.240;2023-06-14T05:38:43;11.27;;;5.53;;
6517;SDS011;3292;48.944;9.240;2023-06-14T05:41:09;7.13;;;5.27;;
6517;SDS011;3292;48.944;9.240;2023-06-14T05:43:42;6.37;;;4.90;;
6517;SDS011;3292;48.944;9.240;2023-06-14T05:46:09;13.97;;;5.10;;
6517;SDS011;3292;48.944;9.240;2023-06-14T05:48:35;9.23;;;5.20;;
6517;SDS011;3292;48.944;9.240;2023-06-14T05:51:02;10.57;;;5.40;;
6517;SDS011;3292;48.944;9.240;2023-06-14T05:53:29;8.20;;;5.30;;
6517;SDS011;3292;48.944;9.240;2023-06-14T05:55:56;7.03;;;5.10;;
6517;SDS011;3292;48.944;9.240;2023-06-14T05:58:23;13.00;;;5.30;;
6517;SDS011;3292;48.944;9.240;2023-06-14T06:00:51;14.63;;;5.40;;
6517;SDS011;3292;48.944;9.240;2023-06-14T06:03:18;12.17;;;5.13;;
6517;SDS011;3292;48.944;9.240;2023-06-14T06:05:46;10.30;;;5.30;;
6517;SDS011;3292;48.944;9.240;2023-06-14T06:08:12;13.33;;;5.47;;
6517;SDS011;3292;48.944;9.240;2023-06-14T06:10:41;14.37;;;5.30;;
6517;SDS011;3292;48.944;9.240;2023-06-14T06:13:08;7.63;;;4.33;;
6517;SDS011;3292;48.944;9.240;2023-06-14T06:15:38;7.10;;;4.60;;
6517;SDS011;3292;48.944;9.240;2023-06-14T06:18:06;7.97;;;5.00;;
6517;SDS011;3292;48.944;9.240;2023-06-14T06:20:33;8.52;;;4.72;;
6517;SDS011;3292;48.944;9.240;2023-06-14T06:23:02;7.15;;;4.60;;
6517;SDS011;3292;48.944;9.240;2023-06-14T06:25:29;8.68;;;4.40;;
6517;SDS011;3292;48.944;9.240;2023-06-14T06:27:57;11.70;;;4.43;;
6517;SDS011;3292;48.944;9.240;2023-06-14T06:30:24;9.07;;;4.72;;
6517;SDS011;3292;48.944;9.240;2023-06-14T06:32:51;6.55;;;4.20;;
6517;SDS011;3292;48.944;9.240;2023-06-14T06:35:19;8.68;;;4.00;;
6517;SDS011;3292;48.944;9.240;2023-06-14T06:37:46;7.50;;;4.43;;
6517;SDS011;3292;48.944;9.240;2023-06-14T06:40:13;6.95;;;5.07;;
6517;SDS011;3292;48.944;9.240;2023-06-14T06:42:40;6.00;;;4.72;;
6517;SDS011;3292;48.944;9.240;2023-06-14T06:45:07;7.35;;;4.47;;
6517;SDS011;3292;48.944;9.240;2023-06-14T06:47:34;6.65;;;4.47;;
6517;SDS011;3292;48.944;9.240;2023-06-14T06:50:01;8.25;;;4.75;;
6517;SDS011;3292;48.944;9.240;2023-06-14T06:52:29;5.10;;;4.13;;
6517;SDS011;3292;48.944;9.240;2023-06-14T06:54:58;6.82;;;4.55;;
6517;SDS011;3292;48.944;9.240;2023-06-14T06:57:25;4.53;;;4.13;;
6517;SDS011;3292;48.944;9.240;2023-06-14T06:59:54;7.18;;;4.03;;
6517;SDS011;3292;48.944;9.240;2023-06-14T07:02:20;7.18;;;4.15;;
6517;SDS011;3292;48.944;9.240;2023-06-14T07:04:47;4.55;;;3.97;;
6517;SDS011;3292;48.944;9.240;2023-06-14T07:07:14;5.35;;;4.20;;
6517;SDS011;3292;48.944;9.240;2023-06-14T07:09:42;8.02;;;4.40;;
6517;SDS011;3292;48.944;9.240;2023-06-14T07:12:11;4.85;;;4.32;;
6517;SDS011;3292;48.944;9.240;2023-06-14T07:14:38;6.18;;;4.20;;
6517;SDS011;3292;48.944;9.240;2023-06-14T07:17:05;7.55;;;4.25;;
6517;SDS011;3292;48.944;9.240;2023-06-14T07:19:31;7.55;;;3.83;;
6517;SDS011;3292;48.944;9.240;2023-06-14T07:21:59;6.80;;;4.32;;
6517;SDS011;3292;48.944;9.240;2023-06-14T07:24:25;5.80;;;4.80;;
6517;SDS011;3292;48.944;9.240;2023-06-14T07:26:54;7.60;;;4.65;;
6517;SDS011;3292;48.944;9.240;2023-06-14T07:29:21;6.45;;;4.15;;
6517;SDS011;3292;48.944;9.240;2023-06-14T07:31:48;4.95;;;4.40;;
6517;SDS011;3292;48.944;9.240;2023-06-14T07:34:15;7.43;;;4.63;;
6517;SDS011;3292;48.944;9.240;2023-06-14T07:36:42;6.82;;;4.50;;
6517;SDS011;3292;48.944;9.240;2023-06-14T07:39:12;5.88;;;4.60;;
6517;SDS011;3292;48.944;9.240;2023-06-14T07:41:39;6.65;;;4.53;;
6517;SDS011;3292;48.944;9.240;2023-06-14T07:44:07;5.68;;;4.35;;
6517;SDS011;3292;48.944;9.240;2023-06-14T07:46:35;7.20;;;4.82;;
6517;SDS011;3292;48.944;9.240;2023-06-14T07:49:05;7.40;;;4.60;;
6517;SDS011;3292;48.944;9.240;2023-06-14T07:51:32;7.07;;;4.60;;
6517;SDS011;3292;48.944;9.240;2023-06-14T07:53:59;5.07;;;4.05;;
6517;SDS011;3292;48.944;9.240;2023-06-14T07:56:27;5.55;;;3.95;;
6517;SDS011;3292;48.944;9.240;2023-06-14T07:58:54;7.18;;;4.82;;
6517;SDS011;3292;48.944;9.240;2023-06-14T08:01:22;6.13;;;4.70;;
6517;SDS011;3292;48.944;9.240;2023-06-14T08:03:50;4.95;;;4.43;;
6517;SDS011;3292;48.944;9.240;2023-06-14T08:06:17;6.38;;;4.43;;
6517;SDS011;3292;48.944;9.240;2023-06-14T08:08:44;6.53;;;4.90;;
6517;SDS011;3292;48.944;9.240;2023-06-14T08:11:11;5.45;;;4.93;;
6517;SDS011;3292;48.944;9.240;2023-06-14T08:13:37;6.82;;;4.53;;
6517;SDS011;3292;48.944;9.240;2023-06-14T08:16:04;7.43;;;4.45;;
6517;SDS011;3292;48.944;9.240;2023-06-14T08:18:33;5.97;;;4.80;;
6517;SDS011;3292;48.944;9.240;2023-06-14T08:21:01;8.30;;;4.22;;
6517;SDS011;3292;48.944;9.240;2023-06-14T08:23:29;5.75;;;4.60;;
6517;SDS011;3292;48.944;9.240;2023-06-14T08:25:55;8.93;;;4.50;;
6517;SDS011;3292;48.944;9.240;2023-06-14T08:28:23;4.53;;;4.15;;
6517;SDS011;3292;48.944;9.240;2023-06-14T08:30:50;5.13;;;4.47;;
6517;SDS011;3292;48.944;9.240;2023-06-14T08:33:17;7.68;;;4.68;;
6517;SDS011;3292;48.944;9.240;2023-06-14T08:35:45;7.28;;;4.50;;
6517;SDS011;3292;48.944;9.240;2023-06-14T08:38:12;6.95;;;4.63;;
6517;SDS011;3292;48.944;9.240;2023-06-14T08:40:39;7.72;;;4.60;;
6517;SDS011;3292;48.944;9.240;2023-06-14T08:43:07;5.75;;;3.92;;
6517;SDS011;3292;48.944;9.240;2023-06-14T08:45:34;5.30;;;4.53;;
6517;SDS011;3292;48.944;9.240;2023-06-14T08:48:01;6.18;;;4.28;;
6517;SDS011;3292;48.944;9.240;2023-06-14T08:50:28;6.00;;;3.90;;
6517;SDS011;3292;48.944;9.240;2023-06-14T08:53:00;5.15;;;4.00;;
6517;SDS011;3292;48.944;9.240;2023-06-14T08:55:28;6.93;;;4.10;;
6517;SDS011;3292;48.944;9.240;2023-06-14T08:57:56;5.93;;;4.20;;
6517;SDS011;3292;48.944;9.240;2023-06-14T09:00:24;5.57;;;4.18;;
6517;SDS011;3292;48.944;9.240;2023-06-14T09:02:51;4.55;;;4.15;;
6517;SDS011;3292;48.944;9.240;2023-06-14T09:05:23;5.38;;;4.20;;
6517;SDS011;3292;48.944;9.240;2023-06-14T09:07:50;6.75;;;3.80;;
6517;SDS011;3292;48.944;9.240;2023-06-14T09:10:19;7.63;;;4.15;;
6517;SDS011;3292;48.944;9.240;2023-06-14T09:12:47;4.50;;;4.10;;
6517;SDS011;3292;48.944;9.240;2023-06-14T09:15:14;7.85;;;4.25;;
6517;SDS011;3292;48.944;9.240;2023-06-14T09:17:42;7.47;;;3.70;;
6517;SDS011;3292;48.944;9.240;2023-06-14T09:20:09;6.22;;;4.22;;
6517;SDS011;3292;48.944;9.240;2023-06-14T09:22:38;7.20;;;4.28;;
6517;SDS011;3292;48.944;9.240;2023-06-14T09:25:07;9.85;;;4.07;;
6517;SDS011;3292;48.944;9.240;2023-06-14T09:27:36;6.25;;;3.95;;
6517;SDS011;3292;48.944;9.240;2023-06-14T09:30:05;8.95;;;4.35;;
6517;SDS011;3292;48.944;9.240;2023-06-14T09:32:35;7.20;;;4.47;;
6517;SDS011;3292;48.944;9.240;2023-06-14T09:35:03;4.80;;;4.18;;
6517;SDS011;3292;48.944;9.240;2023-06-14T09:37:31;5.70;;;3.88;;
6517;SDS011;3292;48.944;9.240;2023-06-14T09:39:58;4.57;;;3.70;;
6517;SDS011;3292;48.944;9.240;2023-06-14T09:42:25;4.95;;;3.85;;
6517;SDS011;3292;48.944;9.240;2023-06-14T09:44:54;4.18;;;3.78;;
6517;SDS011;3292;48.944;9.240;2023-06-14T09:47:23;6.50;;;3.60;;
6517;SDS011;3292;48.944;9.240;2023-06-14T09:49:50;6.25;;;3.90;;
6517;SDS011;3292;48.944;9.240;2023-06-14T09:52:19;6.65;;;3.70;;
6517;SDS011;3292;48.944;9.240;2023-06-14T09:54:47;4.40;;;3.60;;
6517;SDS011;3292;48.944;9.240;2023-06-14T09:57:15;4.28;;;3.92;;
6517;SDS011;3292;48.944;9.240;2023-06-14T09:59:46;5.88;;;3.60;;
6517;SDS011;3292;48.944;9.240;2023-06-14T10:02:18;4.05;;;3.58;;
6517;SDS011;3292;48.944;9.240;2023-06-14T10:04:50;4.45;;;3.38;;
6517;SDS011;3292;48.944;9.240;2023-06-14T10:07:26;5.65;;;3.80;;
6517;SDS011;3292;48.944;9.240;2023-06-14T10:09:56;4.88;;;3.53;;
6517;SDS011;3292;48.944;9.240;2023-06-14T10:12:24;4.88;;;3.20;;
6517;SDS011;3292;48.944;9.240;2023-06-14T10:14:51;5.15;;;3.60;;
6517;SDS011;3292;48.944;9.240;2023-06-14T10:17:26;5.78;;;3.70;;
6517;SDS011;3292;48.944;9.240;2023-06-14T10:20:03;6.07;;;3.53;;
6517;SDS011;3292;48.944;9.240;2023-06-14T10:22:41;10.82;;;3.95;;
6517;SDS011;3292;48.944;9.240;2023-06-14T10:25:13;3.80;;;3.22;;
6517;SDS011;3292;48.944;9.240;2023-06-14T10:27:53;7.10;;;3.67;;
6517;SDS011;3292;48.944;9.240;2023-06-14T10:30:29;7.28;;;3.63;;
6517;SDS011;3292;48.944;9.240;2023-06-14T10:33:06;4.65;;;3.95;;
6517;SDS011;3292;48.944;9.240;2023-06-14T10:35:35;3.72;;;3.03;;
6517;SDS011;3292;48.944;9.240;2023-06-14T10:38:08;5.18;;;3.65;;
6517;SDS011;3292;48.944;9.240;2023-06-14T10:40:35;5.25;;;3.40;;
6517;SDS011;3292;48.944;9.240;2023-06-14T10:48:42;5.70;;;3.55;;
6517;SDS011;3292;48.944;9.240;2023-06-14T10:51:16;5.18;;;3.47;;
6517;SDS011;3292;48.944;9.240;2023-06-14T10:53:46;4.70;;;3.05;;
6517;SDS011;3292;48.944;9.240;2023-06-14T10:56:23;5.13;;;3.65;;
6517;SDS011;3292;48.944;9.240;2023-06-14T10:58:53;4.03;;;3.20;;
6517;SDS011;3292;48.944;9.240;2023-06-14T11:01:23;5.82;;;3.35;;
6517;SDS011;3292;48.944;9.240;2023-06-14T11:04:04;4.22;;;3.50;;
6517;SDS011;3292;48.944;9.240;2023-06-14T11:06:36;3.78;;;3.45;;
6517;SDS011;3292;48.944;9.240;2023-06-14T11:09:30;5.18;;;3.63;;
6517;SDS011;3292;48.944;9.240;2023-06-14T11:12:12;3.72;;;3.30;;
6517;SDS011;3292;48.944;9.240;2023-06-14T11:14:41;4.47;;;3.30;;
6517;SDS011;3292;48.944;9.240;2023-06-14T11:17:08;7.03;;;3.42;;
6517;SDS011;3292;48.944;9.240;2023-06-14T11:19:36;4.10;;;3.50;;
6517;SDS011;3292;48.944;9.240;2023-06-14T11:22:03;4.07;;;3.30;;
6517;SDS011;3292;48.944;9.240;2023-06-14T11:24:31;3.75;;;3.45;;
6517;SDS011;3292;48.944;9.240;2023-06-14T11:26:59;5.47;;;3.40;;
6517;SDS011;3292;48.944;9.240;2023-06-14T11:29:25;5.72;;;3.55;;
6517;SDS011;3292;48.944;9.240;2023-06-14T11:31:54;5.30;;;3.47;;
6517;SDS011;3292;48.944;9.240;2023-06-14T11:34:21;3.75;;;3.17;;
6517;SDS011;3292;48.944;9.240;2023-06-14T11:36:49;4.70;;;3.40;;
6517;SDS011;3292;48.944;9.240;2023-06-14T11:39:16;6.20;;;3.45;;
6517;SDS011;3292;48.944;9.240;2023-06-14T11:41:46;3.53;;;3.22;;
6517;SDS011;3292;48.944;9.240;2023-06-14T11:44:13;5.22;;;3.38;;
6517;SDS011;3292;48.944;9.240;2023-06-14T11:46:40;3.80;;;3.38;;
6517;SDS011;3292;48.944;9.240;2023-06-14T11:49:06;3.33;;;3.03;;
6517;SDS011;3292;48.944;9.240;2023-06-14T11:51:34;3.40;;;3.10;;
6517;SDS011;3292;48.944;9.240;2023-06-14T11:54:03;3.70;;;3.40;;
6517;SDS011;3292;48.944;9.240;2023-06-14T11:56:32;3.78;;;3.00;;
6517;SDS011;3292;48.944;9.240;2023-06-14T11:59:03;4.22;;;3.30;;
6517;SDS011;3292;48.944;9.240;2023-06-14T12:01:35;4.15;;;3.67;;
6517;SDS011;3292;48.944;9.240;2023-06-14T12:04:04;4.78;;;3.70;;
6517;SDS011;3292;48.944;9.240;2023-06-14T12:06:31;5.53;;;3.70;;
6517;SDS011;3292;48.944;9.240;2023-06-14T12:09:06;5.28;;;3.42;;
6517;SDS011;3292;48.944;9.240;2023-06-14T12:11:38;7.60;;;3.40;;
6517;SDS011;3292;48.944;9.240;2023-06-14T12:14:05;3.72;;;3.30;;
6517;SDS011;3292;48.944;9.240;2023-06-14T12:16:34;4.38;;;3.10;;
6517;SDS011;3292;48.944;9.240;2023-06-14T12:19:09;6.78;;;3.22;;
6517;SDS011;3292;48.944;9.240;2023-06-14T12:21:38;3.78;;;3.40;;
6517;SDS011;3292;48.944;9.240;2023-06-14T12:24:07;5.13;;;3.40;;
6517;SDS011;3292;48.944;9.240;2023-06-14T12:26:37;3.40;;;3.13;;
6517;SDS011;3292;48.944;9.240;2023-06-14T12:29:07;4.63;;;3.65;;
6517;SDS011;3292;48.944;9.240;2023-06-14T12:31:35;3.63;;;3.33;;
6517;SDS011;3292;48.944;9.240;2023-06-14T12:34:02;7.57;;;3.70;;
6517;SDS011;3292;48.944;9.240;2023-06-14T12:36:29;5.13;;;3.80;;
6517;SDS011;3292;48.944;9.240;2023-06-14T12:38:57;3.75;;;3.45;;
6517;SDS011;3292;48.944;9.240;2023-06-14T12:41:25;5.43;;;3.60;;
6517;SDS011;3292;48.944;9.240;2023-06-14T12:43:52;4.63;;;3.88;;
6517;SDS011;3292;48.944;9.240;2023-06-14T12:46:19;4.57;;;3.80;;
6517;SDS011;3292;48.944;9.240;2023-06-14T12:48:47;5.03;;;3.40;;
6517;SDS011;3292;48.944;9.240;2023-06-14T12:51:13;3.97;;;3.42;;
6517;SDS011;3292;48.944;9.240;2023-06-14T12:53:40;4.10;;;3.60;;
6517;SDS011;3292;48.944;9.240;2023-06-14T12:56:07;4.63;;;3.63;;
6517;SDS011;3292;48.944;9.240;2023-06-14T12:58:38;5.82;;;3.50;;
6517;SDS011;3292;48.944;9.240;2023-06-14T13:01:05;6.65;;;3.58;;
6517;SDS011;3292;48.944;9.240;2023-06-14T13:03:32;4.93;;;3.97;;
6517;SDS011;3292;48.944;9.240;2023-06-14T13:05:59;6.10;;;3.90;;
6517;SDS011;3292;48.944;9.240;2023-06-14T13:08:26;4.10;;;3.28;;
6517;SDS011;3292;48.944;9.240;2023-06-14T13:10:53;5.70;;;3.53;;
6517;SDS011;3292;48.944;9.240;2023-06-14T13:13:20;3.60;;;3.30;;
6517;SDS011;3292;48.944;9.240;2023-06-14T13:15:48;3.63;;;3.33;;
6517;SDS011;3292;48.944;9.240;2023-06-14T13:18:15;3.85;;;3.42;;
6517;SDS011;3292;48.944;9.240;2023-06-14T13:20:42;4.85;;;3.55;;
6517;SDS011;3292;48.944;9.240;2023-06-14T13:23:09;4.47;;;3.30;;
6517;SDS011;3292;48.944;9.240;2023-06-14T13:25:36;3.97;;;3.58;;
6517;SDS011;3292;48.944;9.240;2023-06-14T13:28:04;5.32;;;3.53;;
6517;SDS011;3292;48.944;9.240;2023-06-14T13:30:31;5.68;;;3.67;;
6517;SDS011;3292;48.944;9.240;2023-06-14T13:33:00;3.83;;;3.40;;
6517;SDS011;3292;48.944;9.240;2023-06-14T13:35:28;6.75;;;3.47;;
6517;SDS011;3292;48.944;9.240;2023-06-14T13:37:55;4.28;;;3.40;;
6517;SDS011;3292;48.944;9.240;2023-06-14T13:40:22;4.35;;;3.38;;
6517;SDS011;3292;48.944;9.240;2023-06-14T13:42:49;3.60;;;3.28;;
6517;SDS011;3292;48.944;9.240;2023-06-14T13:45:15;4.10;;;3.35;;
6517;SDS011;3292;48.944;9.240;2023-06-14T13:47:42;3.83;;;3.45;;
6517;SDS011;3292;48.944;9.240;2023-06-14T13:50:11;3.95;;;3.58;;
6517;SDS011;3292;48.944;9.240;2023-06-14T13:52:38;6.95;;;3.40;;
6517;SDS011;3292;48.944;9.240;2023-06-14T13:55:05;4.43;;;3.50;;
6517;SDS011;3292;48.944;9.240;2023-06-14T13:57:32;7.97;;;3.60;;
6517;SDS011;3292;48.944;9.240;2023-06-14T13:59:59;6.32;;;3.20;;
6517;SDS011;3292;48.944;9.240;2023-06-14T14:02:27;4.40;;;3.22;;
6517;SDS011;3292;48.944;9.240;2023-06-14T14:04:54;3.67;;;3.38;;
6517;SDS011;3292;48.944;9.240;2023-06-14T14:07:23;3.72;;;3.30;;
6517;SDS011;3292;48.944;9.240;2023-06-14T14:09:50;3.80;;;3.42;;
6517;SDS011;3292;48.944;9.240;2023-06-14T14:12:18;4.13;;;3.30;;
6517;SDS011;3292;48.944;9.240;2023-06-14T14:14:45;5.63;;;3.40;;
6517;SDS011;3292;48.944;9.240;2023-06-14T14:17:12;4.55;;;3.28;;
6517;SDS011;3292;48.944;9.240;2023-06-14T14:19:39;7.05;;;3.60;;
6517;SDS011;3292;48.944;9.240;2023-06-14T14:22:06;6.70;;;3.53;;
6517;SDS011;3292;48.944;9.240;2023-06-14T14:24:34;4.32;;;3.40;;
6517;SDS011;3292;48.944;9.240;2023-06-14T14:27:01;7.00;;;3.45;;
6517;SDS011;3292;48.944;9.240;2023-06-14T14:29:28;3.58;;;3.28;;
6517;SDS011;3292;48.944;9.240;2023-06-14T14:31:55;6.97;;;3.70;;
6517;SDS011;3292;48.944;9.240;2023-06-14T14:34:22;8.15;;;3.50;;
6517;SDS011;3292;48.944;9.240;2023-06-14T14:36:49;5.07;;;3.40;;
6517;SDS011;3292;48.944;9.240;2023-06-14T14:39:15;5.30;;;3.15;;
6517;SDS011;3292;48.944;9.240;2023-06-14T14:41:44;6.10;;;3.53;;
6517;SDS011;3292;48.944;9.240;2023-06-14T14:44:10;3.50;;;3.20;;
6517;SDS011;3292;48.944;9.240;2023-06-14T14:46:37;3.63;;;3.17;;
6517;SDS011;3292;48.944;9.240;2023-06-14T14:49:05;4.63;;;3.63;;
6517;SDS011;3292;48.944;9.240;2023-06-14T14:51:32;5.35;;;3.35;;
6517;SDS011;3292;48.944;9.240;2023-06-14T14:53:58;6.07;;;3.38;;
6517;SDS011;3292;48.944;9.240;2023-06-14T14:56:25;3.40;;;3.10;;
6517;SDS011;3292;48.944;9.240;2023-06-14T14:58:54;4.22;;;3.55;;
6517;SDS011;3292;48.944;9.240;2023-06-14T15:01:20;5.93;;;3.85;;
6517;SDS011;3292;48.944;9.240;2023-06-14T15:03:47;4.32;;;3.47;;
6517;SDS011;3292;48.944;9.240;2023-06-14T15:06:14;6.25;;;3.70;;
6517;SDS011;3292;48.944;9.240;2023-06-14T15:08:42;5.38;;;3.60;;
6517;SDS011;3292;48.944;9.240;2023-06-14T15:11:09;4.95;;;3.70;;
6517;SDS011;3292;48.944;9.240;2023-06-14T15:13:36;4.95;;;3.63;;
6517;SDS011;3292;48.944;9.240;2023-06-14T15:16:04;4.07;;;3.40;;
6517;SDS011;3292;48.944;9.240;2023-06-14T15:18:31;4.70;;;3.53;;
6517;SDS011;3292;48.944;9.240;2023-06-14T15:20:58;3.78;;;3.35;;
6517;SDS011;3292;48.944;9.240;2023-06-14T15:23:25;4.03;;;3.28;;
6517;SDS011;3292;48.944;9.240;2023-06-14T15:25:51;6.65;;;3.60;;
6517;SDS011;3292;48.944;9.240;2023-06-14T15:28:18;3.95;;;3.33;;